This is the latest recevied weather packets stored in our database for station/object DL8TF-13. If no packets are shown the sender has not sent any weather packets the latest 10 day(s).
| Time | Temp. | Humidity | Pressure | Rain* | Wind** | Luminosity | Snow |
|---|---|---|---|---|---|---|---|
| 1778081660 | 14.44° C | 100% | 975 hPa | - | - | - | - |
| 1778081060 | 13.89° C | 100% | 975 hPa | - | - | - | - |
| 1778080460 | 13.89° C | 100% | 976 hPa | - | - | - | - |
| 1778079860 | 13.89° C | 100% | 975 hPa | - | - | - | - |
| 1778079260 | 14.44° C | 100% | 975 hPa | - | - | - | - |
| 1778078660 | 14.44° C | 100% | 975 hPa | - | - | - | - |
| 1778078060 | 13.89° C | 100% | 975 hPa | - | - | - | - |
| 1778077460 | 16.11° C | 95% | 975 hPa | - | - | - | - |
| 1778076860 | 17.78° C | 58% | 974 hPa | - | - | - | - |
| 1778076260 | 18.89° C | 47% | 974 hPa | - | - | - | - |
| 1778075660 | 19.44° C | 44% | 974 hPa | - | - | - | - |
| 1778075059 | 20° C | 43% | 974 hPa | - | - | - | - |
| 1778074459 | 20.56° C | 42% | 974 hPa | - | - | - | - |
| 1778073859 | 21.11° C | 41% | 974 hPa | - | - | - | - |
| 1778073259 | 20.56° C | 39% | 974 hPa | - | - | - | - |
| 1778072659 | 20.56° C | 40% | 974 hPa | - | - | - | - |
| 1778072059 | 21.67° C | 38% | 974 hPa | - | - | - | - |
| 1778071459 | 22.78° C | 36% | 974 hPa | - | - | - | - |
| 1778070859 | 21.67° C | 40% | 974 hPa | - | - | - | - |
| 1778070259 | 21.11° C | 39% | 974 hPa | - | - | - | - |
| 1778069659 | 21.11° C | 39% | 974 hPa | - | - | - | - |
| 1778069059 | 21.67° C | 41% | 974 hPa | - | - | - | - |
| 1778068459 | 21.11° C | 41% | 974 hPa | - | - | - | - |
| 1778067859 | 22.22° C | 39% | 974 hPa | - | - | - | - |
| 1778067258 | 21.67° C | 37% | 974 hPa | - | - | - | - |
* Rain since midnight (hover to see other rain measurements)
** Current wind speed in m/s (hover to see current wind gust speed)